Time;durP1;ratioP1;P1;durP2;ratioP2;P2;SDS_P1;SDS_P2;PMS_P1;PMS_P2;Temp;Humidity;BMP_temperature;BMP_pressure;BME280_temperature;BME280_humidity;BME280_pressure;Samples;Min_cycle;Max_cycle;Signal;HPM_P1;HPM_P2
2022/04/12 00:00:59;;;;;;;6.75;4.50;;;;;;;10.85;50.34;100896.47;5031344;28;20374;-68
2022/04/12 00:03:24;;;;;;;9.57;4.32;;;;;;;10.84;49.97;100891.28;5033378;28;20408;-71
2022/04/12 00:05:51;;;;;;;7.45;4.20;;;;;;;10.84;50.22;100883.16;5033308;28;20037;-71
2022/04/12 00:08:17;;;;;;;6.43;4.60;;;;;;;10.81;49.71;100879.88;5016586;28;20433;-70
2022/04/12 00:10:43;;;;;;;6.93;4.13;;;;;;;10.81;50.37;100889.88;5023251;28;20038;-69
2022/04/12 00:13:08;;;;;;;7.43;4.47;;;;;;;10.76;49.95;100877.00;5027325;28;20499;-72
2022/04/12 00:15:33;;;;;;;9.20;4.20;;;;;;;10.77;49.94;100875.97;5013650;28;20028;-68
2022/04/12 00:20:43;;;;;;;8.13;4.75;;;;;;;10.75;49.59;100871.81;5022102;28;20547;-72
2022/04/12 00:23:11;;;;;;;4.85;3.80;;;;;;;10.64;50.39;100867.97;5032815;28;20037;-69
2022/04/12 00:25:36;;;;;;;8.82;4.10;;;;;;;10.66;50.53;100871.31;5009491;28;20044;-70
2022/04/12 00:28:02;;;;;;;6.05;4.40;;;;;;;10.64;49.85;100867.97;5012996;28;20033;-70
2022/04/12 00:30:28;;;;;;;6.35;4.10;;;;;;;10.59;50.27;100871.38;5026590;28;20033;-71
2022/04/12 00:32:53;;;;;;;7.38;4.05;;;;;;;10.62;50.27;100872.81;4998491;28;20042;-69
2022/04/12 00:35:22;;;;;;;8.73;3.90;;;;;;;10.57;50.01;100867.25;5014166;28;20500;-69
2022/04/12 00:37:50;;;;;;;10.18;4.05;;;;;;;10.56;50.47;100876.41;5017627;28;20053;-69
2022/04/12 00:40:18;;;;;;;9.70;3.90;;;;;;;10.57;50.13;100870.78;5027329;28;20041;-71
2022/04/12 00:42:44;;;;;;;6.18;3.72;;;;;;;10.54;51.43;100873.13;5031257;28;20041;-69
2022/04/12 00:45:09;;;;;;;7.68;4.05;;;;;;;10.52;51.72;100865.19;5029061;28;20036;-72
2022/04/12 00:47:34;;;;;;;10.27;4.10;;;;;;;10.49;50.86;100875.66;5032849;28;20030;-68
2022/04/12 00:50:00;;;;;;;7.57;3.80;;;;;;;10.48;50.97;100865.88;5032093;28;20040;-70
2022/04/12 00:52:27;;;;;;;6.53;3.70;;;;;;;10.45;50.84;100865.28;5029354;28;20092;-71
2022/04/12 00:54:53;;;;;;;7.13;3.78;;;;;;;10.46;50.99;100863.38;5014277;28;20038;-69
2022/04/12 00:57:19;;;;;;;7.32;3.78;;;;;;;10.42;51.69;100865.72;5032524;28;20029;-71
2022/04/12 00:59:45;;;;;;;7.47;3.90;;;;;;;10.39;50.60;100866.16;5013576;28;20461;-71
2022/04/12 01:02:10;;;;;;;5.55;3.95;;;;;;;10.39;51.67;100877.00;4992567;28;20113;-69
2022/04/12 01:04:36;;;;;;;5.47;3.85;;;;;;;10.40;50.86;100878.66;5013120;28;20041;-71
2022/04/12 01:07:02;;;;;;;8.50;3.90;;;;;;;10.36;50.97;100866.63;5030078;28;20107;-70
2022/04/12 01:09:27;;;;;;;6.15;3.80;;;;;;;10.34;51.97;100863.31;5052053;28;20064;-69
2022/04/12 01:11:54;;;;;;;6.45;3.67;;;;;;;10.33;52.03;100853.53;5033065;28;20065;-69
2022/04/12 01:14:19;;;;;;;6.97;4.10;;;;;;;10.34;50.77;100857.06;5032435;28;20116;-71
2022/04/12 01:16:45;;;;;;;5.75;3.80;;;;;;;10.34;51.29;100862.47;5032638;28;20121;-67
2022/04/12 01:19:10;;;;;;;5.88;3.65;;;;;;;10.34;50.88;100852.50;5043117;28;20467;-70
2022/04/12 01:21:41;;;;;;;9.05;4.00;;;;;;;10.24;52.02;100863.78;5050646;28;20088;-69
2022/04/12 01:24:07;;;;;;;9.63;4.20;;;;;;;10.22;51.26;100859.63;5050934;28;20028;-69
2022/04/12 01:26:32;;;;;;;5.72;3.70;;;;;;;10.22;51.45;100865.03;5045232;28;20041;-68
2022/04/12 01:28:58;;;;;;;8.30;4.18;;;;;;;10.24;52.21;100868.38;5021494;28;20028;-69
2022/04/12 01:31:25;;;;;;;7.97;3.70;;;;;;;10.17;52.12;100857.59;5033113;28;20034;-70
2022/04/12 01:33:50;;;;;;;9.05;4.30;;;;;;;10.17;51.22;100860.31;5015635;28;20469;-70
2022/04/12 01:36:15;;;;;;;10.10;3.95;;;;;;;10.18;52.72;100853.84;5035147;28;20036;-72
2022/04/12 01:38:41;;;;;;;10.00;3.70;;;;;;;10.13;52.50;100851.00;5051664;28;20119;-70
2022/04/12 01:41:06;;;;;;;9.93;4.10;;;;;;;10.15;51.52;100856.19;5034616;28;20026;-71
2022/04/12 01:43:31;;;;;;;6.75;3.88;;;;;;;10.10;52.08;100846.84;5031949;28;20237;-71
2022/04/12 01:45:56;;;;;;;5.85;4.05;;;;;;;10.13;52.97;100855.56;5032202;28;20513;-72
2022/04/12 01:48:22;;;;;;;8.73;4.35;;;;;;;10.06;53.54;100853.75;5036895;28;20029;-69
2022/04/12 01:50:48;;;;;;;5.07;3.78;;;;;;;10.06;53.45;100848.34;5052020;28;20358;-68
2022/04/12 01:53:13;;;;;;;7.50;4.03;;;;;;;10.04;53.40;100846.91;5049829;28;20469;-70
2022/04/12 01:55:39;;;;;;;10.05;4.35;;;;;;;10.06;52.92;100842.94;5015224;28;20104;-70
2022/04/12 01:58:04;;;;;;;12.73;3.80;;;;;;;10.03;53.09;100835.25;5032128;28;20476;-71
2022/04/12 02:00:29;;;;;;;7.93;3.90;;;;;;;10.03;53.54;100835.25;5029740;28;20388;-69
2022/04/12 02:02:56;;;;;;;6.85;3.70;;;;;;;9.99;52.62;100836.75;5032362;28;20092;-71
2022/04/12 02:05:21;;;;;;;9.07;4.25;;;;;;;9.98;53.05;100840.53;5042195;28;20036;-70
2022/04/12 02:07:46;;;;;;;9.13;4.28;;;;;;;9.93;53.55;100838.47;5044581;28;20056;-72
2022/04/12 02:10:12;;;;;;;10.32;4.35;;;;;;;9.93;53.65;100843.03;5052737;28;20043;-69
2022/04/12 02:12:37;;;;;;;9.02;4.32;;;;;;;9.86;53.25;100842.28;5037437;28;20036;-69
2022/04/12 02:15:03;;;;;;;8.65;4.53;;;;;;;9.84;53.17;100852.47;5054947;28;20033;-72
2022/04/12 02:17:29;;;;;;;6.80;4.40;;;;;;;9.77;53.47;100847.13;5055124;28;20104;-70
2022/04/12 02:19:54;;;;;;;7.20;3.92;;;;;;;9.79;53.94;100839.63;5053434;28;20460;-69
2022/04/12 02:22:19;;;;;;;7.53;3.88;;;;;;;9.77;53.48;100836.31;5053671;28;20484;-72
2022/04/12 02:24:45;;;;;;;5.57;3.80;;;;;;;9.78;53.69;100837.16;5063177;28;20033;-74
2022/04/12 02:27:10;;;;;;;10.23;4.05;;;;;;;9.79;53.68;100838.81;5064988;28;20032;-69
2022/04/12 02:29:36;;;;;;;7.70;4.05;;;;;;;9.78;53.82;100843.38;5057272;28;20116;-75
2022/04/12 02:32:01;;;;;;;7.20;3.85;;;;;;;9.75;53.72;100839.25;5042730;28;20061;-76
2022/04/12 02:34:26;;;;;;;8.38;4.13;;;;;;;9.69;54.51;100836.59;5038082;28;20056;-69
2022/04/12 02:36:52;;;;;;;6.45;3.70;;;;;;;9.68;53.52;100832.25;5056767;28;20033;-70
2022/04/12 02:39:17;;;;;;;7.30;3.65;;;;;;;9.67;54.48;100835.97;5037946;28;20037;-68
2022/04/12 02:41:42;;;;;;;6.35;3.85;;;;;;;9.63;55.08;100835.59;5037345;28;20468;-68
2022/04/12 02:44:07;;;;;;;9.38;3.92;;;;;;;9.66;55.76;100835.16;5042659;28;20033;-67
2022/04/12 02:46:33;;;;;;;5.60;3.65;;;;;;;9.60;55.12;100827.09;5047187;28;20033;-67
2022/04/12 02:48:58;;;;;;;8.98;4.13;;;;;;;9.60;54.44;100819.81;5054408;28;20043;-68
2022/04/12 02:51:23;;;;;;;6.97;4.00;;;;;;;9.55;55.05;100823.16;5053058;28;20041;-69
2022/04/12 02:53:48;;;;;;;6.75;3.97;;;;;;;9.51;55.36;100813.88;5054086;28;20037;-68
2022/04/12 02:56:14;;;;;;;9.60;4.30;;;;;;;9.51;55.60;100821.13;5039215;28;20062;-68
2022/04/12 02:58:39;;;;;;;5.93;3.92;;;;;;;9.53;56.09;100810.94;5034658;28;20029;-68
2022/04/12 03:01:04;;;;;;;8.63;4.05;;;;;;;9.49;55.77;100815.94;5032623;28;20127;-68
2022/04/12 03:03:30;;;;;;;7.63;3.90;;;;;;;9.49;54.78;100807.00;5034646;28;20488;-69
2022/04/12 03:05:55;;;;;;;8.82;3.85;;;;;;;9.46;56.15;100810.97;5049351;28;20033;-68
2022/04/12 03:08:20;;;;;;;8.18;3.90;;;;;;;9.45;56.00;100800.38;5054265;28;20052;-68
2022/04/12 03:10:45;;;;;;;7.60;3.90;;;;;;;9.47;56.00;100803.72;5053218;28;20464;-68
2022/04/12 03:13:11;;;;;;;5.63;3.60;;;;;;;9.45;55.44;100793.13;5054084;28;20033;-68
2022/04/12 03:15:36;;;;;;;6.93;3.72;;;;;;;9.42;56.61;100798.97;5046487;28;20115;-69
2022/04/12 03:18:01;;;;;;;9.48;4.13;;;;;;;9.40;55.37;100793.78;5037704;28;20040;-68
2022/04/12 03:20:27;;;;;;;7.85;3.95;;;;;;;9.40;55.48;100792.94;5034035;28;20103;-69
2022/04/12 03:22:52;;;;;;;6.85;4.22;;;;;;;9.33;55.76;100790.31;5039227;28;20036;-69
2022/04/12 03:25:18;;;;;;;7.40;4.13;;;;;;;9.32;56.53;100775.13;5036796;28;20029;-68
2022/04/12 03:27:43;;;;;;;6.65;4.00;;;;;;;9.31;56.35;100778.88;5034406;28;20100;-68
2022/04/12 03:30:08;;;;;;;8.80;4.60;;;;;;;9.32;56.03;100783.25;5037505;28;20036;-68
2022/04/12 03:32:34;;;;;;;8.07;4.75;;;;;;;9.22;56.17;100781.03;5034416;28;20095;-67
2022/04/12 03:34:59;;;;;;;9.43;4.40;;;;;;;9.23;56.14;100766.47;5038684;28;20025;-68
2022/04/12 03:37:24;;;;;;;5.72;3.95;;;;;;;9.22;56.67;100780.19;5033806;28;20053;-68
2022/04/12 03:39:51;;;;;;;8.98;4.43;;;;;;;9.13;56.69;100782.31;5050807;28;20380;-68
2022/04/12 03:42:18;;;;;;;6.82;4.32;;;;;;;9.18;58.11;100787.91;5036064;28;20389;-68
2022/04/12 03:44:46;;;;;;;8.27;4.68;;;;;;;9.13;58.25;100795.00;5016313;28;20037;-67
2022/04/12 03:47:12;;;;;;;8.00;4.30;;;;;;;9.18;57.57;100792.50;5034107;28;20100;-69
2022/04/12 03:49:37;;;;;;;7.47;4.25;;;;;;;9.13;57.04;100782.31;5034832;28;20117;-68
2022/04/12 03:52:03;;;;;;;10.70;4.63;;;;;;;9.11;57.13;100767.41;5033591;28;20172;-67
2022/04/12 03:54:28;;;;;;;7.43;4.00;;;;;;;9.09;57.05;100764.91;5043689;28;20033;-68
2022/04/12 03:56:54;;;;;;;12.98;4.82;;;;;;;9.09;57.52;100754.13;5053749;28;20028;-69
2022/04/12 03:59:21;;;;;;;12.57;4.68;;;;;;;9.08;57.27;100757.84;5058193;28;20482;-68
2022/04/12 04:01:46;;;;;;;6.72;4.22;;;;;;;9.05;57.35;100758.28;5071472;28;20029;-69
2022/04/12 04:04:12;;;;;;;12.90;4.80;;;;;;;9.02;57.85;100766.81;5073815;28;20375;-67
2022/04/12 04:06:37;;;;;;;11.32;4.47;;;;;;;9.03;57.92;100769.31;5055384;28;20029;-69
2022/04/12 04:09:02;;;;;;;10.23;4.43;;;;;;;9.08;57.08;100768.66;5072877;28;20032;-67
2022/04/12 04:11:28;;;;;;;11.82;4.55;;;;;;;9.10;57.85;100765.72;5036031;28;20033;-69
2022/04/12 04:13:53;;;;;;;8.93;4.47;;;;;;;9.09;57.55;100761.38;5053012;28;20037;-69
2022/04/12 04:16:18;;;;;;;9.88;4.45;;;;;;;9.04;57.72;100768.25;5017144;28;20044;-69
2022/04/12 04:18:43;;;;;;;9.02;4.32;;;;;;;9.08;57.83;100765.94;5016695;28;20484;-68
2022/04/12 04:21:09;;;;;;;8.30;4.60;;;;;;;9.03;58.08;100768.47;5039682;28;20037;-68
2022/04/12 04:23:34;;;;;;;8.35;4.60;;;;;;;9.01;58.79;100766.00;5052795;28;20048;-68
2022/04/12 04:26:00;;;;;;;8.60;4.50;;;;;;;9.02;58.15;100759.53;5053194;28;20443;-67
2022/04/12 04:28:29;;;;;;;7.55;5.03;;;;;;;9.05;57.42;100764.50;5048034;28;20084;-68
2022/04/12 04:30:54;;;;;;;8.73;4.78;;;;;;;9.02;58.73;100764.13;5037590;28;20076;-67
2022/04/12 04:33:20;;;;;;;7.60;4.78;;;;;;;8.97;58.71;100766.66;5049951;28;20036;-68
2022/04/12 04:35:46;;;;;;;10.52;4.90;;;;;;;8.99;58.41;100773.47;5041788;28;20040;-67
2022/04/12 04:38:12;;;;;;;6.22;4.25;;;;;;;9.03;57.80;100771.19;5033124;28;20029;-68
2022/04/12 04:40:37;;;;;;;9.70;4.93;;;;;;;8.98;58.66;100763.75;5041130;28;20036;-68
2022/04/12 04:43:02;;;;;;;10.65;4.82;;;;;;;8.90;58.50;100771.25;5033536;28;20458;-68
2022/04/12 04:45:28;;;;;;;10.07;4.57;;;;;;;8.92;58.94;100778.06;5032734;28;20021;-69
2022/04/12 04:47:56;;;;;;;8.38;5.00;;;;;;;8.91;59.22;100795.31;5032897;28;20120;-69
2022/04/12 04:50:23;;;;;;;8.07;5.20;;;;;;;8.92;59.44;100806.94;5033686;28;20095;-69
2022/04/12 04:52:49;;;;;;;10.70;4.82;;;;;;;8.90;59.34;100815.25;5032992;28;20057;-67
2022/04/12 04:55:15;;;;;;;9.63;5.47;;;;;;;8.89;60.09;100810.88;5035265;28;20032;-67
2022/04/12 04:57:42;;;;;;;8.35;5.28;;;;;;;8.90;59.82;100815.25;5052169;28;20033;-68
2022/04/12 05:00:15;;;;;;;11.77;5.00;;;;;;;8.83;60.47;100826.09;5040489;28;20046;-68
2022/04/12 05:02:43;;;;;;;10.55;5.28;;;;;;;8.82;60.69;100820.91;5050187;28;20159;-67
2022/04/12 05:05:08;;;;;;;8.25;5.30;;;;;;;8.78;60.13;100800.78;5052318;28;20067;-69
2022/04/12 05:07:34;;;;;;;11.57;5.25;;;;;;;8.79;60.44;100802.44;5052338;28;20081;-69
2022/04/12 05:09:59;;;;;;;11.25;5.05;;;;;;;8.81;60.44;100794.94;5035886;28;20090;-67
2022/04/12 05:12:24;;;;;;;9.60;5.60;;;;;;;8.84;59.55;100784.53;5037996;28;20037;-68
2022/04/12 05:14:49;;;;;;;9.90;5.35;;;;;;;8.85;60.19;100782.69;5052161;28;20071;-68
2022/04/12 05:17:24;;;;;;;10.05;5.13;;;;;;;8.90;60.36;100788.25;5052456;28;20459;-68
2022/04/12 05:19:49;;;;;;;10.93;5.20;;;;;;;8.89;60.14;100802.78;5049837;28;20041;-69
2022/04/12 05:22:14;;;;;;;8.75;5.20;;;;;;;8.89;60.68;100792.00;5033672;28;20044;-69
2022/04/12 05:24:40;;;;;;;9.63;5.55;;;;;;;8.92;61.15;100791.56;5051745;28;20037;-68
2022/04/12 05:27:05;;;;;;;11.65;5.75;;;;;;;8.95;60.63;100788.47;5034621;28;20025;-67
2022/04/12 05:29:30;;;;;;;9.57;5.35;;;;;;;8.97;60.40;100789.06;5020966;28;20044;-68
2022/04/12 05:31:55;;;;;;;7.63;5.22;;;;;;;9.00;59.57;100771.63;5041821;28;20124;-68
2022/04/12 05:34:21;;;;;;;12.13;5.10;;;;;;;9.04;60.46;100773.66;5014054;28;20052;-70
2022/04/12 05:36:46;;;;;;;11.80;5.50;;;;;;;8.99;59.99;100775.34;5033473;28;20465;-69
2022/04/12 05:39:11;;;;;;;7.80;5.20;;;;;;;9.03;59.69;100796.28;5031021;28;20117;-71
2022/04/12 05:41:36;;;;;;;10.10;5.10;;;;;;;9.00;59.89;100794.03;5019955;28;20061;-70
2022/04/12 05:44:02;;;;;;;8.98;5.53;;;;;;;9.00;59.52;100783.22;5037561;28;20041;-69
2022/04/12 05:46:27;;;;;;;10.77;6.25;;;;;;;9.00;59.64;100777.84;5017951;28;20034;-69
2022/04/12 05:48:52;;;;;;;9.50;5.38;;;;;;;9.03;59.86;100792.78;5036037;28;20136;-69
2022/04/12 05:51:29;;;;;;;9.45;5.72;;;;;;;8.98;60.50;100789.88;5043322;28;20075;-71
2022/04/12 05:53:55;;;;;;;10.10;5.78;;;;;;;9.02;60.24;100797.31;5040845;28;20353;-69
2022/04/12 05:56:20;;;;;;;10.25;5.85;;;;;;;9.01;60.43;100803.78;5054160;28;20028;-69
2022/04/12 05:58:45;;;;;;;10.85;5.25;;;;;;;9.06;60.38;100797.75;5039177;28;20056;-69
2022/04/12 06:01:11;;;;;;;12.38;6.05;;;;;;;9.04;60.38;100787.16;5053136;28;20041;-70
2022/04/12 06:03:36;;;;;;;8.52;5.38;;;;;;;9.12;59.89;100791.47;5055148;28;20108;-70
2022/04/12 06:06:01;;;;;;;8.52;5.30;;;;;;;9.11;59.40;100797.09;5038005;28;20063;-70
2022/04/12 06:08:27;;;;;;;11.32;5.60;;;;;;;9.09;59.46;100791.06;5055044;28;20076;-69
2022/04/12 06:10:52;;;;;;;10.73;5.75;;;;;;;9.05;59.49;100790.69;5043911;28;20120;-69
2022/04/12 06:13:18;;;;;;;9.85;5.75;;;;;;;9.09;59.80;100789.22;5035813;28;20038;-69
2022/04/12 06:15:43;;;;;;;15.60;5.78;;;;;;;9.15;60.13;100801.84;5035565;28;20064;-69
2022/04/12 06:18:10;;;;;;;16.38;5.47;;;;;;;9.18;60.17;100803.28;5053596;28;20025;-69
2022/04/12 06:20:35;;;;;;;11.00;5.80;;;;;;;9.24;60.21;100797.00;5055471;28;20041;-69
2022/04/12 06:23:01;;;;;;;9.93;5.60;;;;;;;9.33;59.93;100800.25;5055590;28;20039;-69
2022/04/12 06:25:26;;;;;;;11.15;6.05;;;;;;;9.36;59.50;100806.06;5055304;28;20117;-70
2022/04/12 06:27:51;;;;;;;11.45;6.28;;;;;;;9.42;59.96;100808.94;5055284;28;20033;-70
2022/04/12 06:30:19;;;;;;;10.50;5.93;;;;;;;9.48;59.43;100811.59;5040662;28;20034;-69
2022/04/12 06:32:45;;;;;;;9.15;5.70;;;;;;;9.54;59.54;100801.78;5036346;28;20477;-69
2022/04/12 06:35:12;;;;;;;8.95;5.45;;;;;;;9.56;58.92;100805.09;5052710;28;20087;-69
2022/04/12 06:37:42;;;;;;;7.95;5.57;;;;;;;9.61;59.15;100805.25;5055144;28;20060;-68
2022/04/12 06:40:10;;;;;;;9.30;5.75;;;;;;;9.65;59.74;100805.66;5054943;28;20041;-69
2022/04/12 06:42:35;;;;;;;9.20;5.70;;;;;;;9.73;59.12;100808.91;5054986;28;20025;-69
2022/04/12 06:45:02;;;;;;;9.60;5.85;;;;;;;9.76;60.11;100803.06;5037823;28;20030;-69
2022/04/12 06:47:28;;;;;;;10.38;5.90;;;;;;;9.79;58.64;100790.97;5054481;28;20033;-70
2022/04/12 06:49:54;;;;;;;8.70;5.53;;;;;;;9.89;58.34;100794.00;5037207;28;20087;-69
2022/04/12 06:52:22;;;;;;;10.50;6.15;;;;;;;9.97;58.39;100790.19;5035072;28;20025;-69
2022/04/12 06:54:48;;;;;;;11.00;5.97;;;;;;;10.06;58.64;100791.56;5038455;28;20048;-69
2022/04/12 06:57:14;;;;;;;10.77;5.53;;;;;;;10.10;58.64;100787.38;5049952;28;20040;-69
2022/04/12 06:59:39;;;;;;;12.18;5.35;;;;;;;10.20;58.96;100791.44;5036400;28;20025;-69
2022/04/12 07:02:05;;;;;;;9.80;5.63;;;;;;;10.28;57.91;100788.41;5052247;28;20632;-69
2022/04/12 07:04:31;;;;;;;8.75;5.20;;;;;;;10.39;57.82;100787.72;5054299;28;20063;-69
2022/04/12 07:06:57;;;;;;;7.70;5.03;;;;;;;10.52;57.87;100788.63;5052623;28;20084;-69
2022/04/12 07:09:23;;;;;;;10.73;5.63;;;;;;;10.59;57.03;100781.25;5034690;28;20044;-69
2022/04/12 07:11:50;;;;;;;9.25;4.78;;;;;;;10.67;56.64;100780.94;5016665;28;20033;-69
2022/04/12 07:14:16;;;;;;;10.23;5.10;;;;;;;10.78;56.34;100782.06;5034364;28;20109;-69
2022/04/12 07:16:41;;;;;;;9.52;5.30;;;;;;;10.89;56.20;100788.59;5035188;28;20534;-69
2022/04/12 07:19:06;;;;;;;9.15;5.70;;;;;;;11.00;56.68;100795.91;5035629;28;20033;-69
2022/04/12 07:21:32;;;;;;;10.98;5.20;;;;;;;11.07;56.44;100796.66;5017344;28;20037;-69
2022/04/12 07:23:59;;;;;;;8.48;5.28;;;;;;;11.20;56.24;100800.22;5034350;28;20116;-69
2022/04/12 07:26:25;;;;;;;8.95;4.82;;;;;;;11.30;55.99;100790.50;5050570;28;20025;-69
2022/04/12 07:28:50;;;;;;;9.35;4.60;;;;;;;11.40;55.94;100787.22;5046811;28;20044;-69
2022/04/12 07:31:15;;;;;;;10.27;4.93;;;;;;;11.53;55.22;100788.88;5017559;28;20025;-70
2022/04/12 07:33:41;;;;;;;9.38;4.75;;;;;;;11.62;56.10;100792.91;5040695;28;20039;-69
2022/04/12 07:36:06;;;;;;;8.13;4.40;;;;;;;11.70;55.49;100792.59;5054199;28;20025;-70
2022/04/12 07:38:31;;;;;;;8.18;4.68;;;;;;;11.79;55.55;100793.06;5047670;28;20033;-69
2022/04/12 07:40:57;;;;;;;8.32;4.97;;;;;;;11.88;54.63;100780.81;5034190;28;20461;-69
2022/04/12 07:43:22;;;;;;;8.25;5.00;;;;;;;12.03;55.18;100790.38;5035224;28;20090;-70
2022/04/12 07:45:47;;;;;;;8.18;5.13;;;;;;;12.12;54.69;100783.53;5044732;28;20484;-69
2022/04/12 07:48:12;;;;;;;11.40;4.97;;;;;;;12.19;53.98;100792.38;5032619;28;20025;-70
2022/04/12 07:50:38;;;;;;;10.80;4.68;;;;;;;12.29;53.56;100785.53;5045192;28;20029;-69
2022/04/12 07:53:04;;;;;;;12.02;5.00;;;;;;;12.37;53.95;100787.88;5033857;28;20456;-69
2022/04/12 07:55:29;;;;;;;8.13;4.70;;;;;;;12.45;54.26;100786.69;5033382;28;20040;-69
2022/04/12 07:57:54;;;;;;;11.57;4.60;;;;;;;12.50;53.62;100787.63;5033823;28;20052;-69
2022/04/12 08:00:20;;;;;;;5.03;4.03;;;;;;;12.57;53.73;100782.88;5037090;28;20440;-69
2022/04/12 08:02:45;;;;;;;8.30;4.40;;;;;;;12.68;53.48;100792.06;5032189;28;20040;-69
2022/04/12 08:05:10;;;;;;;5.55;3.97;;;;;;;12.77;53.29;100796.06;5043338;28;20207;-70
2022/04/12 08:07:36;;;;;;;8.07;4.38;;;;;;;12.88;52.90;100790.84;5052932;28;20480;-70
2022/04/12 08:10:01;;;;;;;6.25;4.38;;;;;;;12.91;53.42;100796.59;5052821;28;20025;-69
2022/04/12 08:12:26;;;;;;;10.90;4.47;;;;;;;13.01;52.76;100797.84;5053308;28;20028;-70
2022/04/12 08:14:52;;;;;;;9.40;4.40;;;;;;;12.99;52.98;100783.69;5052887;28;20048;-69
2022/04/12 08:17:18;;;;;;;5.82;3.72;;;;;;;13.07;53.90;100791.44;5052743;28;20036;-70
2022/04/12 08:19:43;;;;;;;6.90;4.05;;;;;;;13.11;52.84;100779.03;5049778;28;20086;-70
2022/04/12 08:22:09;;;;;;;8.32;3.85;;;;;;;13.23;53.00;100789.84;5053001;28;20032;-69
2022/04/12 08:24:36;;;;;;;7.65;4.18;;;;;;;13.29;52.68;100795.13;5040092;28;20073;-70
2022/04/12 08:27:02;;;;;;;13.93;4.13;;;;;;;13.38;53.11;100790.16;5033431;28;20054;-70
2022/04/12 08:29:28;;;;;;;8.55;3.90;;;;;;;13.46;52.68;100794.34;5029413;28;20480;-69
2022/04/12 08:31:53;;;;;;;5.80;3.95;;;;;;;13.55;52.49;100797.50;5048664;28;20032;-70
2022/04/12 08:34:18;;;;;;;6.80;3.90;;;;;;;13.68;52.93;100799.06;5044158;28;20385;-69
2022/04/12 08:36:43;;;;;;;8.68;3.88;;;;;;;13.76;52.69;100791.31;5052773;28;20032;-70
2022/04/12 08:39:09;;;;;;;7.72;3.80;;;;;;;13.82;51.55;100792.22;5034459;28;20394;-70
2022/04/12 08:41:39;;;;;;;6.05;3.38;;;;;;;13.91;51.70;100787.19;5052378;28;20044;-71
2022/04/12 08:44:06;;;;;;;6.35;3.40;;;;;;;13.95;52.01;100775.56;5052361;28;20029;-70
2022/04/12 08:46:32;;;;;;;3.78;2.63;;;;;;;14.00;51.91;100772.09;5034503;28;20047;-70
2022/04/12 08:48:58;;;;;;;6.00;2.78;;;;;;;14.04;50.61;100764.25;5052527;28;20129;-69
2022/04/12 08:51:27;;;;;;;6.68;2.78;;;;;;;14.06;51.34;100760.22;5050612;28;20119;-70
2022/04/12 08:53:56;;;;;;;10.93;2.92;;;;;;;14.02;51.28;100758.25;5035308;28;20528;-72
2022/04/12 08:56:22;;;;;;;7.25;2.88;;;;;;;14.05;50.77;100761.28;5048934;28;20033;-69
2022/04/12 08:58:47;;;;;;;4.32;2.70;;;;;;;14.04;50.75;100751.47;5052104;28;20087;-72
2022/04/12 09:01:12;;;;;;;10.25;3.00;;;;;;;14.13;51.22;100754.56;5040842;28;20045;-69
2022/04/12 09:03:38;;;;;;;6.82;3.00;;;;;;;14.24;51.33;100761.81;5041444;28;20108;-70
2022/04/12 09:06:04;;;;;;;3.67;2.70;;;;;;;14.23;50.33;100768.31;5052570;28;20024;-71
2022/04/12 09:08:31;;;;;;;5.13;2.75;;;;;;;14.28;50.57;100764.84;5053019;28;20094;-70
2022/04/12 09:10:58;;;;;;;7.13;3.00;;;;;;;14.38;50.67;100769.63;5057916;28;20048;-69
2022/04/12 09:13:24;;;;;;;5.68;2.80;;;;;;;14.48;50.90;100754.22;5032273;28;20374;-70
2022/04/12 09:15:50;;;;;;;5.35;2.78;;;;;;;14.60;50.59;100748.66;5037306;28;20100;-69
2022/04/12 09:18:30;;;;;;;7.55;3.17;;;;;;;14.67;51.00;100749.31;5052668;28;20457;-70
2022/04/12 09:21:09;;;;;;;3.70;2.77;;;;;;;14.77;50.68;100731.44;5051811;28;20029;-71
2022/04/12 09:23:35;;;;;;;6.30;3.20;;;;;;;14.86;49.62;100724.47;5052033;28;20032;-71
2022/04/12 09:26:00;;;;;;;5.65;2.85;;;;;;;15.01;50.48;100727.31;5036684;28;20125;-68
2022/04/12 09:28:25;;;;;;;6.95;2.67;;;;;;;15.07;49.27;100725.47;5032464;28;20120;-70
2022/04/12 09:30:53;;;;;;;6.82;3.10;;;;;;;15.15;49.65;100727.72;5032390;28;20029;-71
2022/04/12 09:33:35;;;;;;;8.30;3.20;;;;;;;15.26;50.29;100723.19;5032022;28;20388;-68
2022/04/12 09:36:01;;;;;;;4.68;2.70;;;;;;;15.27;50.25;100713.94;5032442;28;20503;-74
2022/04/12 09:38:37;;;;;;;8.52;2.70;;;;;;;15.36;50.56;100722.47;5032226;28;20037;-69
2022/04/12 09:41:15;;;;;;;5.40;2.80;;;;;;;15.41;49.74;100734.25;5038884;28;20230;-70
2022/04/12 09:43:51;;;;;;;5.80;2.65;;;;;;;15.49;49.90;100730.22;5035317;28;20037;-72
2022/04/12 09:46:17;;;;;;;9.05;3.05;;;;;;;15.58;49.34;100728.63;5039086;28;20025;-73
2022/04/12 09:48:47;;;;;;;6.40;2.50;;;;;;;15.57;49.62;100728.91;5031231;28;20389;-70
2022/04/12 09:51:13;;;;;;;25.25;3.70;;;;;;;15.60;49.75;100740.09;5031694;28;20038;-68
2022/04/12 09:53:40;;;;;;;12.50;3.67;;;;;;;15.65;50.15;100733.84;5031881;28;20052;-70
2022/04/12 09:56:20;;;;;;;8.20;2.90;;;;;;;15.73;49.31;100738.00;5031794;28;20044;-71
2022/04/12 09:58:48;;;;;;;7.93;3.00;;;;;;;15.84;48.51;100734.31;5031241;28;20037;-73
2022/04/12 10:01:14;;;;;;;10.13;2.90;;;;;;;15.83;48.15;100738.09;5033987;28;20037;-71
2022/04/12 10:03:43;;;;;;;6.05;2.60;;;;;;;15.88;49.10;100734.59;5048677;28;20033;-74
2022/04/12 10:06:10;;;;;;;6.57;2.97;;;;;;;15.94;49.20;100723.44;5050854;28;20071;-71
2022/04/12 10:08:36;;;;;;;5.25;2.60;;;;;;;16.01;49.28;100714.19;5051626;28;20553;-71
2022/04/12 10:11:02;;;;;;;5.65;2.80;;;;;;;16.09;49.03;100709.06;5051880;28;20127;-71
2022/04/12 10:13:29;;;;;;;6.13;3.00;;;;;;;16.23;49.19;100708.56;5047866;28;20381;-71
2022/04/12 10:15:55;;;;;;;9.50;3.00;;;;;;;16.33;48.85;100697.69;5036676;28;20029;-69
2022/04/12 10:18:21;;;;;;;4.70;2.90;;;;;;;16.42;47.64;100701.53;5032518;28;20044;-71
2022/04/12 10:20:46;;;;;;;7.95;2.72;;;;;;;16.55;48.17;100704.88;5035108;28;20029;-69
2022/04/12 10:23:14;;;;;;;6.53;2.95;;;;;;;16.56;48.35;100698.31;5037047;28;20061;-68
2022/04/12 10:25:40;;;;;;;8.25;2.70;;;;;;;16.63;48.88;100691.50;5019203;28;20033;-70
2022/04/12 10:28:06;;;;;;;4.93;2.92;;;;;;;16.72;48.09;100690.97;5042344;28;20082;-72
2022/04/12 10:30:32;;;;;;;6.57;2.90;;;;;;;16.79;48.65;100686.91;5052517;28;20098;-73
2022/04/12 10:33:06;;;;;;;5.72;2.90;;;;;;;16.88;48.83;100681.75;5041998;28;20573;-70
2022/04/12 10:35:44;;;;;;;8.23;2.95;;;;;;;16.91;48.10;100685.84;5043363;28;20086;-70
2022/04/12 10:38:11;;;;;;;5.10;2.85;;;;;;;16.98;47.92;100687.25;5053942;28;20033;-72
2022/04/12 10:40:45;;;;;;;5.82;2.90;;;;;;;17.07;47.71;100679.28;5055632;28;20086;-72
2022/04/12 10:43:11;;;;;;;4.85;2.88;;;;;;;17.20;46.84;100677.94;5055244;28;20052;-70
2022/04/12 10:45:45;;;;;;;8.57;3.10;;;;;;;17.24;47.39;100673.56;5054345;28;20029;-72
2022/04/12 10:48:19;;;;;;;6.40;2.88;;;;;;;17.29;48.39;100676.28;5053350;28;20450;-72
2022/04/12 10:50:46;;;;;;;6.22;2.67;;;;;;;17.39;46.77;100675.44;5054637;28;20055;-72
2022/04/12 10:53:11;;;;;;;5.30;2.63;;;;;;;17.47;45.87;100672.19;5054763;28;20029;-71
2022/04/12 10:55:40;;;;;;;7.75;3.17;;;;;;;17.51;46.95;100667.81;5054829;28;20027;-68
2022/04/12 10:58:29;;;;;;;6.93;2.67;;;;;;;17.57;47.70;100667.78;5054947;28;20025;-69
2022/04/12 11:00:55;;;;;;;4.53;2.70;;;;;;;17.63;45.77;100659.28;5040353;28;20032;-69
2022/04/12 11:03:45;;;;;;;6.78;2.90;;;;;;;17.66;46.51;100666.97;5055062;28;20037;-70
2022/04/12 11:06:12;;;;;;;4.65;2.58;;;;;;;17.68;47.22;100666.69;5065437;28;20047;-70
2022/04/12 11:08:37;;;;;;;6.53;2.58;;;;;;;17.71;46.25;100671.59;5034970;28;20115;-68
2022/04/12 11:11:06;;;;;;;6.27;2.93;;;;;;;17.91;46.12;100670.75;5034552;28;20025;-70
2022/04/12 11:13:33;;;;;;;6.20;2.80;;;;;;;17.97;45.54;100672.38;5034865;28;20029;-69
2022/04/12 11:16:03;;;;;;;8.10;2.72;;;;;;;18.08;45.14;100678.63;5034519;28;20060;-69
2022/04/12 11:18:51;;;;;;;6.63;2.55;;;;;;;18.10;45.84;100679.19;5034910;28;20092;-70
2022/04/12 11:21:22;;;;;;;5.35;2.53;;;;;;;18.08;45.45;100662.19;5034634;28;20461;-68
2022/04/12 11:23:48;;;;;;;3.05;2.20;;;;;;;18.11;45.42;100664.38;5034390;28;20021;-72
2022/04/12 11:26:32;;;;;;;4.70;2.53;;;;;;;18.12;45.46;100671.50;5042300;28;20480;-69